Time;durP1;ratioP1;P1;durP2;ratioP2;P2;SDS_P1;SDS_P2;PMS_P1;PMS_P2;Temp;Humidity;BMP_temperature;BMP_pressure;BME280_temperature;BME280_humidity;BME280_pressure;Samples;Min_cycle;Max_cycle;Signal;HPM_P1;HPM_P2
2021/12/22 00:00:55;;;;;;;;;63.25;53.00;;;;;-1.34;81.49;101903.53;5123588;27;45277;-74
2021/12/22 00:03:22;;;;;;;;;64.00;49.00;;;;;-1.45;81.27;101890.97;5123571;27;45252;-74
2021/12/22 00:05:48;;;;;;;;;61.25;51.25;;;;;-1.40;81.17;101902.88;5122189;27;46489;-75
2021/12/22 00:08:17;;;;;;;;;62.00;51.50;;;;;-1.44;81.25;101901.34;5123283;27;45983;-74
2021/12/22 00:10:44;;;;;;;;;62.00;51.00;;;;;-1.41;81.17;101916.84;5121941;27;45239;-75
2021/12/22 00:13:10;;;;;;;;;60.25;48.00;;;;;-1.47;81.40;101917.13;5123577;27;45280;-74
2021/12/22 00:15:35;;;;;;;;;55.75;46.75;;;;;-1.43;81.67;101917.84;5123175;27;45293;-74
2021/12/22 00:18:01;;;;;;;;;50.75;44.25;;;;;-1.43;81.95;101916.06;5123206;27;45336;-74
2021/12/22 00:20:26;;;;;;;;;52.75;44.25;;;;;-1.41;81.69;101902.94;5123284;27;45216;-74
2021/12/22 00:22:52;;;;;;;;;48.00;43.75;;;;;-1.39;81.79;101903.75;5122650;27;45222;-74
2021/12/22 00:25:17;;;;;;;;;54.75;44.00;;;;;-1.28;81.32;101911.09;5123380;27;45488;-74
2021/12/22 00:27:42;;;;;;;;;52.00;42.75;;;;;-1.21;82.41;101912.53;5123142;27;46066;-74
2021/12/22 00:30:09;;;;;;;;;52.50;43.25;;;;;-1.09;82.47;101915.50;5122921;27;45429;-74
2021/12/22 00:32:37;;;;;;;;;53.25;44.00;;;;;-1.04;81.53;101909.16;5123279;27;45307;-75
2021/12/22 00:35:03;;;;;;;;;17.25;11.00;;;;;-1.07;82.28;101900.63;5123161;27;45307;-74
2021/12/22 00:37:29;;;;;;;;;50.00;41.25;;;;;-0.97;82.51;101912.34;5113533;27;47412;-75
2021/12/22 00:39:55;;;;;;;;;53.75;42.75;;;;;-0.94;82.38;101914.81;5102566;27;45257;-74
2021/12/22 00:42:24;;;;;;;;;41.25;40.25;;;;;-0.89;82.17;101914.59;5102414;27;45233;-74
2021/12/22 00:44:52;;;;;;;;;42.75;41.50;;;;;-0.89;81.61;101905.00;5102205;27;45273;-74
2021/12/22 00:47:20;;;;;;;;;48.75;43.50;;;;;-0.90;81.74;101887.66;5102196;27;45224;-73
2021/12/22 00:49:45;;;;;;;;;48.50;43.25;;;;;-0.84;81.65;101899.56;5102002;27;45455;-74
2021/12/22 00:52:11;;;;;;;;;53.25;45.00;;;;;-0.92;82.37;101886.03;5102321;27;45276;-74
2021/12/22 00:54:36;;;;;;;;;45.75;42.25;;;;;-0.80;81.72;101905.50;5100543;27;47119;-75
2021/12/22 00:57:05;;;;;;;;;53.25;46.00;;;;;-0.72;81.81;101910.38;5102053;27;46679;-74
2021/12/22 00:59:31;;;;;;;;;46.25;41.50;;;;;-0.65;82.53;101909.16;5101962;27;45333;-74
2021/12/22 01:01:57;;;;;;;;;51.00;42.75;;;;;-0.70;81.58;101896.31;5102048;27;45312;-74
2021/12/22 01:04:22;;;;;;;;;52.00;45.00;;;;;-0.61;81.32;101910.72;5100486;27;47159;-74
2021/12/22 01:06:48;;;;;;;;;50.50;42.75;;;;;-0.65;82.39;101898.72;5101871;27;46307;-74
2021/12/22 01:09:13;;;;;;;;;46.50;43.00;;;;;-0.55;82.12;101904.34;5101789;27;45233;-74
2021/12/22 01:11:39;;;;;;;;;53.00;42.50;;;;;-0.57;81.55;101883.53;5101898;27;45334;-73
2021/12/22 01:14:05;;;;;;;;;54.00;43.50;;;;;-0.53;81.80;101892.94;5101743;27;45234;-73
2021/12/22 01:16:31;;;;;;;;;49.50;40.75;;;;;-0.46;82.28;101901.31;5101585;27;45316;-74
2021/12/22 01:19:00;;;;;;;;;47.25;42.75;;;;;-0.49;81.65;101896.22;5101737;27;45357;-74
2021/12/22 01:21:39;;;;;;;;;44.50;39.50;;;;;-0.46;81.85;101900.44;5100406;27;45367;-74
2021/12/22 01:24:14;;;;;;;;;52.75;43.25;;;;;-0.49;82.21;101883.16;5100010;27;46909;-74
2021/12/22 01:26:45;;;;;;;;;48.75;42.25;;;;;-0.41;82.14;101898.47;5101540;27;45228;-74
2021/12/22 01:29:14;;;;;;;;;51.25;44.00;;;;;-0.38;81.68;101895.72;5101540;27;45329;-74
2021/12/22 01:31:41;;;;;;;;;56.00;45.00;;;;;-0.40;81.72;101890.56;5101567;27;45354;-74
2021/12/22 01:34:07;;;;;;;;;52.50;44.25;;;;;-0.39;81.49;101883.59;5099230;27;47098;-74
2021/12/22 01:36:32;;;;;;;;;50.25;43.25;;;;;-0.30;81.84;101896.19;5102345;27;45660;-74
2021/12/22 01:38:58;;;;;;;;;45.75;37.00;;;;;-0.32;81.33;101900.66;5120367;27;45444;-74
2021/12/22 01:41:24;;;;;;;;;46.75;39.50;;;;;-0.31;81.72;101902.34;5120751;27;45280;-74
2021/12/22 01:43:50;;;;;;;;;44.75;39.25;;;;;-0.28;81.64;101901.34;5121824;27;45543;-74
2021/12/22 01:49:50;;;;;;;;;47.50;41.25;;;;;-0.31;81.47;101911.94;5089394;27;45358;-75
2021/12/22 01:52:17;;;;;;;;;37.75;33.50;;;;;-0.31;81.82;101911.94;5136136;27;45312;-74
2021/12/22 01:54:48;;;;;;;;;27.50;26.00;;;;;-0.32;82.03;101916.31;5121816;27;45499;-74
2021/12/22 01:57:14;;;;;;;;;42.75;39.50;;;;;-0.30;82.00;101911.03;5121689;27;45337;-73
2021/12/22 01:59:42;;;;;;;;;41.25;37.75;;;;;-0.28;82.19;101906.56;5121412;27;45339;-76
2021/12/22 02:02:10;;;;;;;;;40.00;39.00;;;;;-0.20;81.90;101914.88;5121588;27;45447;-76
2021/12/22 02:04:38;;;;;;;;;47.25;38.25;;;;;-0.18;82.36;101917.44;5121574;27;45510;-74
2021/12/22 02:07:05;;;;;;;;;43.50;36.50;;;;;-0.17;81.94;101919.97;5120081;27;47706;-74
2021/12/22 02:12:12;;;;;;;;;40.00;36.75;;;;;-0.17;81.90;101908.66;5121627;27;45380;-73
2021/12/22 02:14:40;;;;;;;;;38.75;35.25;;;;;-0.13;82.19;101910.19;5121302;27;45271;-73
2021/12/22 02:17:08;;;;;;;;;46.50;40.50;;;;;-0.12;82.13;101896.19;5121253;27;45309;-74
2021/12/22 02:19:44;;;;;;;;;37.50;34.75;;;;;-0.12;82.05;101888.34;5121367;27;45168;-74
2021/12/22 02:22:13;;;;;;;;;41.00;36.00;;;;;-0.12;82.16;101883.13;5121452;27;45226;-76
2021/12/22 02:24:44;;;;;;;;;38.75;36.00;;;;;-0.03;82.38;101892.31;5121365;27;45316;-76
2021/12/22 02:27:18;;;;;;;;;40.50;37.50;;;;;-0.05;82.22;101897.59;5121198;27;46155;-74
2021/12/22 02:29:47;;;;;;;;;40.00;35.75;;;;;-0.02;82.22;101899.22;5121065;27;45225;-73
2021/12/22 02:32:28;;;;;;;;;48.25;39.75;;;;;0.01;82.58;101909.53;5120059;27;45478;-74
2021/12/22 02:35:00;;;;;;;;;43.25;39.50;;;;;0.03;82.69;101904.22;5121157;27;45254;-73
2021/12/22 02:37:26;;;;;;;;;37.25;37.25;;;;;0.06;82.46;101901.47;5110614;27;47870;-74
2021/12/22 02:39:59;;;;;;;;;39.00;37.25;;;;;0.01;82.68;101887.75;5099009;27;45252;-73
2021/12/22 02:42:33;;;;;;;;;36.00;33.00;;;;;0.01;82.66;101886.00;5100580;27;45348;-76
2021/12/22 02:45:12;;;;;;;;;41.25;39.25;;;;;0.08;82.48;101886.53;5099943;27;45466;-73
2021/12/22 02:47:38;;;;;;;;;44.00;39.00;;;;;0.10;82.08;101875.09;5100097;27;45288;-76
2021/12/22 02:50:05;;;;;;;;;41.75;38.00;;;;;0.20;82.64;101885.06;5098468;27;45487;-73
2021/12/22 02:52:38;;;;;;;;;45.00;38.25;;;;;0.12;81.98;101865.38;5116151;27;45256;-73
2021/12/22 02:55:04;;;;;;;;;40.25;35.75;;;;;0.19;82.16;101880.75;5098893;27;47067;-73
2021/12/22 02:57:45;;;;;;;;;38.00;32.00;;;;;0.21;82.30;101876.31;5100082;27;45215;-74
2021/12/22 03:00:35;;;;;;;;;49.25;42.75;;;;;0.20;82.28;101871.97;5100075;27;45370;-74
2021/12/22 03:03:08;;;;;;;;;41.75;38.00;;;;;0.24;82.24;101884.81;5098678;27;45293;-76
2021/12/22 03:05:34;;;;;;;;;40.50;38.00;;;;;0.24;81.62;101881.38;5100037;27;45178;-76
2021/12/22 03:08:00;;;;;;;;;39.25;34.50;;;;;0.21;82.10;101877.13;5099784;27;45285;-76
2021/12/22 03:10:25;;;;;;;;;40.75;36.50;;;;;0.15;82.04;101868.78;5099956;27;45203;-76
2021/12/22 03:12:52;;;;;;;;;48.25;38.75;;;;;0.24;81.88;101891.84;5100206;27;45278;-74
2021/12/22 03:15:20;;;;;;;;;39.75;36.75;;;;;0.23;82.16;101885.75;5099946;27;45356;-74
2021/12/22 03:17:46;;;;;;;;;49.00;39.25;;;;;0.14;82.00;101872.28;5099807;27;45404;-74
2021/12/22 03:20:14;;;;;;;;;38.25;36.25;;;;;0.16;82.52;101873.94;5099987;27;45252;-73
2021/12/22 03:22:43;;;;;;;;;41.75;36.25;;;;;0.23;82.26;101893.59;5099764;27;45313;-76
2021/12/22 03:25:14;;;;;;;;;47.00;39.25;;;;;0.25;81.97;101888.28;5099731;27;46051;-74
2021/12/22 03:27:50;;;;;;;;;35.75;34.25;;;;;0.22;82.68;101872.75;5115731;27;46791;-73
2021/12/22 03:30:19;;;;;;;;;40.25;35.25;;;;;0.27;81.81;101870.75;5099555;27;45166;-76
2021/12/22 03:32:44;;;;;;;;;54.00;41.75;;;;;0.20;82.02;101854.53;5099972;27;45389;-76
2021/12/22 03:35:16;;;;;;;;;40.00;35.00;;;;;0.24;82.18;101871.75;5099636;27;45321;-74
2021/12/22 03:37:42;;;;;;;;;43.25;38.50;;;;;0.21;82.33;101866.66;5110126;27;45249;-74
2021/12/22 03:40:08;;;;;;;;;47.75;39.00;;;;;0.17;82.30;101859.06;5120135;27;45285;-73
2021/12/22 03:42:33;;;;;;;;;45.75;40.00;;;;;0.18;82.34;101852.94;5119014;27;45326;-73
2021/12/22 03:44:58;;;;;;;;;44.00;37.75;;;;;0.22;82.05;101854.44;5120166;27;45324;-73
2021/12/22 03:47:26;;;;;;;;;47.75;41.25;;;;;0.27;82.69;101865.50;5118773;27;46992;-73
2021/12/22 03:49:51;;;;;;;;;29.75;24.25;;;;;0.23;82.16;101850.91;5118642;27;45378;-74
2021/12/22 03:52:16;;;;;;;;;42.25;34.50;;;;;0.28;82.04;101863.75;5135985;27;45316;-76
2021/12/22 03:54:42;;;;;;;;;36.00;34.00;;;;;0.22;82.16;101847.47;5120172;27;45248;-73
2021/12/22 03:57:07;;;;;;;;;34.75;34.25;;;;;0.29;82.16;101853.22;5119369;27;48085;-74
2021/12/22 03:59:33;;;;;;;;;32.50;29.50;;;;;0.30;82.23;101841.81;5123607;27;45217;-73
2021/12/22 04:01:59;;;;;;;;;36.25;36.25;;;;;0.25;82.08;101828.16;5123634;27;45217;-73
2021/12/22 04:04:25;;;;;;;;;37.75;33.00;;;;;0.30;81.87;101830.53;5123490;27;45533;-74
2021/12/22 04:06:51;;;;;;;;;35.50;27.75;;;;;0.31;82.11;101832.22;5139257;27;48182;-76
2021/12/22 04:09:17;;;;;;;;;44.00;39.50;;;;;0.35;82.17;101845.06;5123281;27;45192;-76
2021/12/22 04:11:44;;;;;;;;;41.25;35.50;;;;;0.30;82.30;101822.69;5123420;27;45386;-76
2021/12/22 04:14:12;;;;;;;;;45.00;36.50;;;;;0.34;81.81;101838.13;5123200;27;45446;-73
2021/12/22 04:16:37;;;;;;;;;45.00;38.00;;;;;0.36;81.89;101849.34;5123230;27;45398;-74
2021/12/22 04:19:03;;;;;;;;;30.50;29.00;;;;;0.41;81.36;101851.72;5123276;27;45445;-73
2021/12/22 04:21:30;;;;;;;;;36.50;36.25;;;;;0.37;81.31;101851.06;5123495;27;45206;-74
2021/12/22 04:23:55;;;;;;;;;43.00;39.00;;;;;0.40;81.43;101844.81;5121622;27;46058;-73
2021/12/22 04:26:21;;;;;;;;;34.00;26.75;;;;;0.46;81.37;101849.72;5123168;27;45264;-74
2021/12/22 04:28:46;;;;;;;;;39.00;38.00;;;;;0.43;81.08;101854.25;5123010;27;45253;-73
2021/12/22 04:31:12;;;;;;;;;36.25;30.25;;;;;0.33;81.38;101838.22;5123309;27;45268;-74
2021/12/22 04:33:37;;;;;;;;;44.50;38.50;;;;;0.31;81.22;101846.13;5123024;27;45221;-73
2021/12/22 04:36:03;;;;;;;;;37.00;36.00;;;;;0.34;81.45;101845.97;5123075;27;45401;-73
2021/12/22 04:38:29;;;;;;;;;42.25;35.50;;;;;0.35;81.40;101852.03;5105087;27;45339;-73
2021/12/22 04:40:54;;;;;;;;;41.25;39.00;;;;;0.28;81.71;101837.59;5102380;27;45281;-73
2021/12/22 04:43:19;;;;;;;;;37.50;34.00;;;;;0.29;80.94;101839.28;5102277;27;45289;-73
2021/12/22 04:45:45;;;;;;;;;34.75;32.75;;;;;0.25;81.25;101836.00;5102230;27;45682;-73
2021/12/22 04:48:10;;;;;;;;;37.25;33.00;;;;;0.27;81.16;101836.75;5102275;27;45302;-75
2021/12/22 04:50:37;;;;;;;;;40.75;35.25;;;;;0.33;81.66;101846.06;5102133;27;45323;-76
2021/12/22 04:55:29;;;;;;;;;32.75;29.50;;;;;0.26;81.18;101835.06;5101927;27;46266;-76
2021/12/22 04:57:56;;;;;;;;;39.75;30.50;;;;;0.26;81.40;101844.69;5101911;27;45262;-75
2021/12/22 05:00:26;;;;;;;;;43.75;32.25;;;;;0.29;81.08;101847.97;5102159;27;45208;-76
2021/12/22 05:02:52;;;;;;;;;35.50;32.75;;;;;0.20;81.10;101833.59;5101603;27;45549;-75
2021/12/22 05:05:17;;;;;;;;;30.25;29.75;;;;;0.20;80.94;101831.00;5100359;27;47595;-75
2021/12/22 05:07:44;;;;;;;;;39.50;35.75;;;;;0.30;81.34;101854.06;5101775;27;45296;-75
2021/12/22 05:10:10;;;;;;;;;41.50;38.00;;;;;0.32;81.14;101857.44;5100572;27;45355;-75
2021/12/22 05:12:36;;;;;;;;;43.00;38.00;;;;;0.30;nan;101857.50;5101721;27;45292;-75
2021/12/22 05:15:03;;;;;;;;;41.25;37.00;;;;;0.23;81.05;101849.16;5117279;27;48300;-72
2021/12/22 05:18:00;;;;;;;;;39.50;35.50;;;;;0.28;81.08;101851.53;5101802;27;45404;-74
2021/12/22 05:20:16;;;;;;;;;33.25;30.50;;;;;0.32;81.67;101860.03;5101523;27;45360;-74
2021/12/22 05:22:42;;;;;;;;;29.25;27.25;;;;;0.29;81.23;101847.97;5101410;27;45365;-75
2021/12/22 05:25:10;;;;;;;;;36.25;32.00;;;;;0.32;81.30;101853.06;5101470;27;46093;-75
2021/12/22 05:27:36;;;;;;;;;44.25;39.00;;;;;0.33;81.36;101854.72;5101518;27;45293;-75
2021/12/22 05:30:02;;;;;;;;;46.00;39.50;;;;;0.39;81.19;101856.19;5101399;27;45535;-75
2021/12/22 05:32:31;;;;;;;;;48.75;41.50;;;;;0.42;81.12;101855.19;5101487;27;47353;-73
2021/12/22 05:35:02;;;;;;;;;43.75;36.75;;;;;0.35;80.96;101842.44;5101361;27;45421;-75
2021/12/22 05:37:28;;;;;;;;;42.00;38.25;;;;;0.37;80.88;101843.22;5109935;27;45448;-75
2021/12/22 05:39:57;;;;;;;;;39.25;36.25;;;;;0.39;81.60;101850.94;5121986;27;45321;-75
2021/12/22 05:42:26;;;;;;;;;42.75;39.00;;;;;0.22;80.88;101821.31;5121939;27;45343;-75
2021/12/22 05:44:52;;;;;;;;;43.50;38.00;;;;;0.42;81.45;101856.03;5121563;27;46097;-75
2021/12/22 05:47:18;;;;;;;;;37.00;33.50;;;;;0.36;81.45;101849.34;5121772;27;45229;-75
2021/12/22 05:49:44;;;;;;;;;36.00;33.75;;;;;0.33;80.99;101851.28;5121755;27;45316;-75
2021/12/22 05:52:10;;;;;;;;;40.50;35.25;;;;;0.32;81.00;101844.34;5121460;27;45313;-75
2021/12/22 05:54:35;;;;;;;;;39.00;35.50;;;;;0.18;80.93;101826.78;5137593;27;46864;-75
2021/12/22 05:57:01;;;;;;;;;45.75;40.50;;;;;0.20;80.74;101830.13;5121577;27;45295;-75
2021/12/22 05:59:26;;;;;;;;;42.00;38.00;;;;;0.24;81.27;101847.38;5121793;27;45264;-75
2021/12/22 06:01:52;;;;;;;;;45.25;40.75;;;;;0.21;81.24;101839.69;5121483;27;45334;-75
2021/12/22 06:04:17;;;;;;;;;38.25;34.25;;;;;0.19;81.24;101847.63;5121625;27;45347;-74
2021/12/22 06:06:43;;;;;;;;;40.25;38.50;;;;;0.19;81.02;101857.22;5121621;27;45283;-76
2021/12/22 06:09:08;;;;;;;;;38.50;35.75;;;;;0.16;81.81;101863.47;5121708;27;45255;-75
2021/12/22 06:11:34;;;;;;;;;46.50;40.50;;;;;0.14;81.65;101861.81;5120927;27;45493;-75
2021/12/22 06:13:59;;;;;;;;;48.25;40.00;;;;;0.14;81.23;101853.97;5118985;27;45502;-73
2021/12/22 06:16:25;;;;;;;;;47.50;40.25;;;;;0.12;81.87;101852.31;5121115;27;45416;-76
2021/12/22 06:18:57;;;;;;;;;53.75;45.50;;;;;0.10;81.95;101840.25;5121522;27;45225;-75
2021/12/22 06:21:22;;;;;;;;;45.25;40.50;;;;;0.05;81.31;101837.84;5120798;27;45323;-77
2021/12/22 06:23:47;;;;;;;;;44.50;38.50;;;;;0.12;81.37;101849.69;5121947;27;45383;-78
2021/12/22 06:26:13;;;;;;;;;41.00;38.25;;;;;0.17;81.58;101857.31;5121473;27;45316;-78
2021/12/22 06:28:38;;;;;;;;;39.50;36.00;;;;;0.20;81.51;101857.16;5121881;27;45315;-77
2021/12/22 06:31:04;;;;;;;;;36.75;34.00;;;;;0.18;81.59;101853.75;5122173;27;45402;-78
2021/12/22 06:33:29;;;;;;;;;40.00;34.50;;;;;0.17;81.33;101851.22;5122689;27;45490;-79
2021/12/22 06:35:55;;;;;;;;;39.00;32.50;;;;;0.14;81.17;101849.59;5121439;27;45364;-79
2021/12/22 06:38:20;;;;;;;;;30.00;28.75;;;;;0.16;nan;101866.06;5104457;27;46474;-79
2021/12/22 06:40:45;;;;;;;;;32.50;32.25;;;;;0.19;81.36;101870.31;5100380;27;45228;-79
2021/12/22 06:43:11;;;;;;;;;41.00;35.00;;;;;0.15;81.65;101853.91;5100314;27;45249;-79
2021/12/22 06:45:36;;;;;;;;;42.00;38.25;;;;;0.13;81.60;101845.31;5100255;27;45312;-78
2021/12/22 06:48:02;;;;;;;;;33.50;32.50;;;;;0.14;81.45;101846.13;5100496;27;45667;-77
2021/12/22 06:50:27;;;;;;;;;40.75;36.75;;;;;0.19;81.20;101865.06;5100211;27;45214;-78
2021/12/22 06:52:53;;;;;;;;;42.50;36.50;;;;;0.16;81.29;101866.06;5100143;27;45400;-78
2021/12/22 06:55:18;;;;;;;;;34.50;31.75;;;;;0.14;81.61;101869.66;5116012;27;45916;-78
2021/12/22 06:57:44;;;;;;;;;36.75;32.75;;;;;0.06;81.81;101857.00;5100380;27;45362;-78
2021/12/22 07:00:11;;;;;;;;;34.75;30.25;;;;;0.12;81.59;101867.16;5098596;27;47124;-78
2021/12/22 07:02:38;;;;;;;;;46.25;38.50;;;;;0.12;81.37;101870.59;5098546;27;47839;-78
2021/12/22 07:05:07;;;;;;;;;30.00;26.50;;;;;0.11;81.38;101861.06;5100023;27;45356;-79
2021/12/22 07:07:32;;;;;;;;;41.50;34.50;;;;;0.08;81.92;101850.78;5115812;27;45212;-77
2021/12/22 07:09:58;;;;;;;;;46.00;38.50;;;;;0.09;81.47;101854.25;5101460;27;45384;-78
2021/12/22 07:12:23;;;;;;;;;39.25;35.00;;;;;0.02;81.50;101850.22;5106186;27;45881;-77
2021/12/22 07:14:49;;;;;;;;;32.50;30.75;;;;;0.14;81.29;101867.06;5106991;27;45264;-78
2021/12/22 07:17:14;;;;;;;;;36.00;33.50;;;;;0.08;81.50;101863.00;5102613;27;45681;-78
2021/12/22 07:19:39;;;;;;;;;49.25;40.50;;;;;0.07;81.34;101856.09;5105798;27;45293;-77
2021/12/22 07:22:05;;;;;;;;;37.50;36.00;;;;;0.19;81.64;101875.53;5104080;27;46497;-77
2021/12/22 07:24:31;;;;;;;;;46.75;38.00;;;;;0.19;81.73;101868.53;5105566;27;45435;-77
2021/12/22 07:26:57;;;;;;;;;41.25;36.00;;;;;0.24;81.35;101866.53;5103746;27;45370;-78
2021/12/22 07:29:22;;;;;;;;;51.75;39.75;;;;;0.21;81.46;101850.97;5099832;27;45251;-78
2021/12/22 07:31:47;;;;;;;;;50.25;38.75;;;;;0.24;81.96;101847.38;5100027;27;46052;-78
2021/12/22 07:34:41;;;;;;;;;41.25;40.00;;;;;0.30;81.83;101854.88;5103722;27;45303;-78
2021/12/22 07:37:26;;;;;;;;;38.25;36.00;;;;;0.30;81.58;101857.50;5110880;27;45343;-78
2021/12/22 07:39:52;;;;;;;;;36.50;35.25;;;;;0.27;81.91;101852.44;5141880;27;46242;-77
2021/12/22 07:42:17;;;;;;;;;34.00;31.50;;;;;0.27;81.22;101862.88;5131553;27;46093;-78
2021/12/22 07:44:42;;;;;;;;;39.00;35.00;;;;;0.19;81.35;101855.47;5126123;27;45316;-78
2021/12/22 07:47:08;;;;;;;;;40.75;35.00;;;;;0.20;81.95;101854.53;5123221;27;45284;-78
2021/12/22 07:49:33;;;;;;;;;39.50;37.00;;;;;0.21;81.68;101855.38;5123822;27;45570;-79
2021/12/22 07:51:58;;;;;;;;;46.00;41.50;;;;;0.17;81.76;101852.06;5126697;27;45251;-78
2021/12/22 07:54:24;;;;;;;;;41.75;37.00;;;;;0.23;81.51;101861.38;5129355;27;45195;-79
2021/12/22 07:56:49;;;;;;;;;53.50;45.00;;;;;0.24;81.41;101863.06;5124521;27;45446;-78
2021/12/22 07:59:14;;;;;;;;;37.50;31.50;;;;;0.26;81.98;101855.97;5127841;27;45413;-78
2021/12/22 08:01:40;;;;;;;;;41.00;38.00;;;;;0.23;81.82;101850.91;5148155;27;47229;-78
2021/12/22 08:04:05;;;;;;;;;40.75;31.50;;;;;0.34;81.29;101863.44;5130259;27;45267;-79
2021/12/22 08:06:31;;;;;;;;;41.00;38.00;;;;;0.28;81.57;101851.53;5134531;27;45260;-76
2021/12/22 08:08:56;;;;;;;;;40.25;38.50;;;;;0.31;81.22;101856.59;5130955;27;45280;-78
2021/12/22 08:11:22;;;;;;;;;42.75;39.25;;;;;0.36;81.16;101862.44;5132904;27;45243;-78
2021/12/22 08:13:47;;;;;;;;;44.50;39.75;;;;;0.35;81.38;101858.13;5131396;27;45370;-78
2021/12/22 08:16:12;;;;;;;;;39.25;35.00;;;;;0.34;81.84;101855.59;5130422;27;45281;-78
2021/12/22 08:18:38;;;;;;;;;36.75;34.75;;;;;0.41;81.28;101870.03;5127358;27;45215;-79
2021/12/22 08:21:03;;;;;;;;;52.25;41.75;;;;;0.36;81.70;101859.81;5105408;27;46581;-78
2021/12/22 08:23:29;;;;;;;;;32.25;27.00;;;;;0.40;81.08;101870.13;5113423;27;45560;-78
2021/12/22 08:25:54;;;;;;;;;44.50;34.00;;;;;0.32;81.49;101862.66;5106804;27;45312;-78
2021/12/22 08:28:20;;;;;;;;;36.25;34.75;;;;;0.30;81.64;101864.53;5108911;27;45255;-78
2021/12/22 08:30:46;;;;;;;;;34.75;33.25;;;;;0.37;81.69;101864.13;5109765;27;45643;-77
2021/12/22 08:33:23;;;;;;;;;42.75;36.50;;;;;0.41;81.65;101870.03;5109465;27;45329;-78
2021/12/22 08:41:24;;;;;;;;;38.25;34.75;;;;;0.36;82.08;101853.75;5103090;27;45410;-77
2021/12/22 08:43:52;;;;;;;;;37.50;36.50;;;;;0.34;81.83;101850.34;5101737;27;45325;-78
2021/12/22 08:46:18;;;;;;;;;45.00;37.50;;;;;0.47;81.77;101858.41;5103030;27;45353;-78
2021/12/22 08:48:43;;;;;;;;;46.00;38.00;;;;;0.42;81.48;101848.19;5102425;27;45451;-77
2021/12/22 08:51:09;;;;;;;;;39.50;37.50;;;;;0.52;81.42;101859.03;5100704;27;47236;-78
2021/12/22 08:53:34;;;;;;;;;48.00;36.50;;;;;0.49;81.79;101859.19;5118358;27;45249;-78
2021/12/22 08:56:00;;;;;;;;;41.25;36.75;;;;;0.44;81.89;101850.72;5101423;27;45258;-77
2021/12/22 08:58:26;;;;;;;;;42.25;38.50;;;;;0.46;81.30;101859.34;5102145;27;45496;-78
2021/12/22 09:00:52;;;;;;;;;43.25;37.75;;;;;0.44;81.72;101846.34;5102272;27;45644;-78
2021/12/22 09:03:17;;;;;;;;;37.75;33.75;;;;;0.49;82.18;101835.63;5102769;27;45270;-78
2021/12/22 09:05:42;;;;;;;;;45.75;38.75;;;;;0.47;82.04;101830.47;5100979;27;45493;-77
2021/12/22 09:08:08;;;;;;;;;42.75;38.00;;;;;0.55;81.79;101848.41;5102072;27;45633;-77
2021/12/22 09:10:33;;;;;;;;;49.75;42.00;;;;;0.55;81.62;101837.06;5100611;27;47067;-77
2021/12/22 09:12:59;;;;;;;;;53.25;39.00;;;;;0.61;81.83;101842.00;5102358;27;45386;-77
2021/12/22 09:15:24;;;;;;;;;41.00;36.75;;;;;0.66;81.93;101832.09;5102115;27;45768;-77
2021/12/22 09:17:50;;;;;;;;;50.50;41.25;;;;;0.67;81.85;101825.97;5102081;27;45320;-77
2021/12/22 09:20:15;;;;;;;;;43.00;37.75;;;;;0.79;81.74;101834.06;5101649;27;45354;-77
2021/12/22 09:22:41;;;;;;;;;52.25;42.00;;;;;0.88;81.53;101833.56;5117395;27;45356;-77
2021/12/22 09:25:07;;;;;;;;;43.50;37.25;;;;;0.91;81.25;101827.31;5101883;27;45386;-76
2021/12/22 09:27:33;;;;;;;;;46.75;40.00;;;;;0.84;81.56;101821.59;5101921;27;45348;-77
2021/12/22 09:29:58;;;;;;;;;46.25;36.25;;;;;0.82;80.76;101821.69;5117411;27;47394;-76
2021/12/22 09:32:24;;;;;;;;;50.50;42.25;;;;;0.90;81.75;101831.72;5101696;27;45285;-76
2021/12/22 09:54:33;;;;;;;;;47.75;41.50;;;;;1.16;80.60;101831.22;5121100;27;45416;-77
2021/12/22 09:56:59;;;;;;;;;42.25;39.25;;;;;1.02;80.42;101803.19;5104208;27;45376;-77
2021/12/22 09:59:26;;;;;;;;;52.50;43.00;;;;;1.10;80.10;101817.53;5116755;27;47285;-77
2021/12/22 10:01:51;;;;;;;;;47.25;40.25;;;;;1.05;80.41;101810.88;5100949;27;45313;-77
2021/12/22 10:04:18;;;;;;;;;50.50;45.25;;;;;1.10;80.31;101814.06;5099438;27;45364;-77
2021/12/22 10:06:44;;;;;;;;;44.00;39.75;;;;;1.14;80.92;101812.97;5100854;27;45456;-77
2021/12/22 10:09:09;;;;;;;;;52.50;41.50;;;;;1.13;79.99;101806.88;5100616;27;45157;-76
2021/12/22 10:11:44;;;;;;;;;44.25;41.25;;;;;1.28;80.48;101830.53;5100785;27;45268;-77
2021/12/22 10:14:22;;;;;;;;;51.50;41.50;;;;;1.19;79.38;101825.78;5100948;27;45234;-77
2021/12/22 10:16:51;;;;;;;;;50.25;41.00;;;;;1.17;80.09;101833.72;5099380;27;45958;-76
2021/12/22 10:19:17;;;;;;;;;44.50;38.75;;;;;1.12;80.16;101822.69;5099271;27;48256;-77
2021/12/22 10:21:58;;;;;;;;;37.25;37.00;;;;;1.16;80.64;101831.22;5100703;27;45287;-77
2021/12/22 10:24:44;;;;;;;;;46.50;41.00;;;;;1.30;79.98;101851.38;5099331;27;45355;-76
2021/12/22 10:27:17;;;;;;;;;42.00;39.50;;;;;1.21;79.86;101834.41;5100473;27;45412;-76
2021/12/22 10:29:43;;;;;;;;;46.25;40.75;;;;;1.34;80.52;101843.28;5100436;27;45396;-77
2021/12/22 10:32:13;;;;;;;;;47.25;40.50;;;;;1.33;79.55;101836.34;5099080;27;45356;-76
2021/12/22 10:35:00;;;;;;;;;52.75;44.00;;;;;1.35;80.49;101834.47;5099204;27;45323;-77
2021/12/22 10:37:31;;;;;;;;;50.25;41.00;;;;;1.35;80.51;101826.63;5108755;27;45278;-76
2021/12/22 10:39:56;;;;;;;;;55.75;45.25;;;;;1.45;80.22;101834.81;5120839;27;45344;-76
2021/12/22 10:42:22;;;;;;;;;48.00;41.25;;;;;1.50;79.78;101843.25;5120979;27;45357;-76
2021/12/22 10:44:49;;;;;;;;;54.50;41.00;;;;;1.54;79.20;101843.94;5121100;27;45330;-76
2021/12/22 10:47:22;;;;;;;;;46.75;39.75;;;;;1.49;79.23;101843.34;5121129;27;45285;-76
2021/12/22 10:50:06;;;;;;;;;54.00;42.75;;;;;1.53;79.08;101841.41;5120867;27;45423;-76
2021/12/22 10:52:32;;;;;;;;;49.00;43.25;;;;;1.58;79.24;101837.56;5119853;27;46168;-75
2021/12/22 10:55:09;;;;;;;;;42.50;38.25;;;;;1.60;79.66;101837.50;5121143;27;45334;-76
2021/12/22 10:57:37;;;;;;;;;53.00;44.50;;;;;1.64;79.66;101829.38;5119997;27;46339;-77
2021/12/22 11:00:16;;;;;;;;;55.50;44.25;;;;;1.67;79.12;101830.13;5119429;27;48134;-77
2021/12/22 11:02:49;;;;;;;;;48.75;40.75;;;;;1.66;79.56;101812.69;5120690;27;45478;-76
2021/12/22 11:05:27;;;;;;;;;47.75;39.75;;;;;1.78;78.81;101812.00;5120874;27;45309;-77
2021/12/22 11:07:52;;;;;;;;;41.25;36.25;;;;;1.74;79.40;101789.50;5123858;27;45334;-77
2021/12/22 11:10:28;;;;;;;;;56.00;43.75;;;;;1.80;78.69;101789.16;5124204;27;45411;-77
2021/12/22 11:13:02;;;;;;;;;47.25;40.50;;;;;1.79;78.88;101773.53;5123113;27;45239;-77
2021/12/22 11:15:28;;;;;;;;;46.75;40.25;;;;;1.84;78.80;101774.94;5124300;27;45328;-76
2021/12/22 11:17:55;;;;;;;;;53.75;44.00;;;;;1.84;78.62;101767.06;5124170;27;45162;-76
2021/12/22 11:20:24;;;;;;;;;49.75;42.25;;;;;1.77;78.27;101744.78;5124270;27;46187;-76
2021/12/22 11:22:58;;;;;;;;;52.50;42.25;;;;;1.95;78.72;101766.41;5122697;27;45286;-76
2021/12/22 11:25:25;;;;;;;;;45.25;39.75;;;;;1.91;77.83;101751.78;5122898;27;45265;-77
2021/12/22 11:27:52;;;;;;;;;45.50;40.00;;;;;1.93;78.53;101754.31;5123918;27;45334;-76
2021/12/22 11:30:18;;;;;;;;;43.75;40.00;;;;;1.98;77.49;101754.91;5122362;27;47238;-77
2021/12/22 11:32:44;;;;;;;;;49.50;42.75;;;;;1.87;77.86;101743.28;5122661;27;45203;-76
2021/12/22 11:35:12;;;;;;;;;41.25;37.00;;;;;1.92;78.36;101758.75;5124097;27;45167;-77
2021/12/22 11:37:37;;;;;;;;;54.00;42.50;;;;;1.93;78.43;101751.69;5113322;27;45508;-76
2021/12/22 11:40:05;;;;;;;;;46.25;39.50;;;;;1.92;78.71;101747.41;5103120;27;45927;-77
2021/12/22 11:42:32;;;;;;;;;51.25;41.25;;;;;1.93;78.47;101731.56;5101955;27;45324;-76
2021/12/22 11:45:17;;;;;;;;;55.50;44.00;;;;;2.00;77.35;101735.50;5103149;27;45440;-77
2021/12/22 11:47:45;;;;;;;;;53.75;42.25;;;;;2.04;77.82;101737.94;5101541;27;47041;-77
2021/12/22 11:50:27;;;;;;;;;52.25;43.50;;;;;2.04;78.57;101733.56;5102922;27;46744;-76